Terminal Aerodrome Forecast
Issued by NWS Sioux Falls, SD

Home | Current Version | Previous Version | Graphics & Text | Print | Product List | Glossary Off
Versions: 1 2 3 4 5 6 7 8 9 10 11 12 13

000
FTUS43 KFSD 200530
TAFHON
TAF
KHON 200530Z 2006/2106 16012KT P6SM OVC130 WS014/18040KT
     FM200800 17012KT P6SM OVC150
     FM201000 17013KT P6SM VCSH OVC070
     FM201500 24010KT P6SM OVC100
     FM201700 31014G22KT P6SM BKN150
     FM202300 29010KT P6SM FEW250
     FM210200 22005KT P6SM SKC=

USA.gov is the U.S. government's official web portal to all federal, state and local government web resources and services.